Time;durP1;ratioP1;P1;durP2;ratioP2;P2;SDS_P1;SDS_P2;PMS_P1;PMS_P2;Temp;Humidity;BMP_temperature;BMP_pressure;BME280_temperature;BME280_humidity;BME280_pressure;Samples;Min_cycle;Max_cycle;Signal;HPM_P1;HPM_P2
2023/08/27 00:01:55;;;;;;;5.53;5.03;;;18.00;99.90;;;;;;6337709;22;20155;-59
2023/08/27 00:04:21;;;;;;;5.93;4.23;;;18.10;99.90;;;;;;6339087;22;20139;-56
2023/08/27 00:06:47;;;;;;;6.07;5.53;;;18.10;99.90;;;;;;6339330;22;20243;-58
2023/08/27 00:09:12;;;;;;;5.50;5.00;;;18.10;99.90;;;;;;6339166;22;20538;-57
2023/08/27 00:11:38;;;;;;;7.60;5.53;;;18.10;99.90;;;;;;6339088;22;20434;-56
2023/08/27 00:14:04;;;;;;;9.00;4.93;;;18.10;99.90;;;;;;6338230;22;20598;-57
2023/08/27 00:16:31;;;;;;;6.03;4.80;;;18.10;99.90;;;;;;6338603;22;20190;-58
2023/08/27 00:18:58;;;;;;;5.13;4.73;;;18.10;99.90;;;;;;6339948;22;20127;-56
2023/08/27 00:21:23;;;;;;;7.80;7.10;;;18.10;99.90;;;;;;6339881;22;20403;-56
2023/08/27 00:23:49;;;;;;;7.60;6.40;;;18.00;99.90;;;;;;6340583;22;20797;-56
2023/08/27 00:26:14;;;;;;;6.80;6.20;;;17.70;99.90;;;;;;6339346;22;20151;-57
2023/08/27 00:28:40;;;;;;;11.70;6.93;;;17.60;99.90;;;;;;6312980;22;20170;-57
2023/08/27 00:31:06;;;;;;;9.80;8.50;;;17.50;99.90;;;;;;6339667;22;20135;-57
2023/08/27 00:33:31;;;;;;;7.53;6.93;;;17.40;99.90;;;;;;6338936;22;20135;-57
2023/08/27 00:35:57;;;;;;;8.50;7.70;;;17.30;99.90;;;;;;6339828;22;20175;-56
2023/08/27 00:38:23;;;;;;;7.20;6.50;;;17.30;1.00;;;;;;6340788;22;20157;-57
2023/08/27 00:40:48;;;;;;;9.07;8.27;;;17.30;1.00;;;;;;6339188;22;20246;-56
2023/08/27 00:43:14;;;;;;;10.20;9.27;;;17.30;1.00;;;;;;6338651;22;20138;-56
2023/08/27 00:45:40;;;;;;;12.57;11.47;;;17.40;1.00;;;;;;6337267;22;20147;-56
2023/08/27 00:48:06;;;;;;;11.23;10.07;;;17.40;1.00;;;;;;6338181;22;20549;-57
2023/08/27 00:50:31;;;;;;;8.83;8.00;;;17.40;1.00;;;;;;6338556;22;20519;-57
2023/08/27 00:52:57;;;;;;;10.17;9.17;;;17.30;1.00;;;;;;6337580;22;20393;-56
2023/08/27 00:55:23;;;;;;;11.23;10.23;;;17.30;1.00;;;;;;6311705;22;20163;-58
2023/08/27 00:57:49;;;;;;;11.10;10.10;;;17.20;1.00;;;;;;6339825;22;20153;-58
2023/08/27 01:00:16;;;;;;;12.30;11.13;;;17.20;1.00;;;;;;6313174;22;20151;-56
2023/08/27 01:02:43;;;;;;;13.10;11.90;;;17.10;1.00;;;;;;6340039;22;20147;-57
2023/08/27 01:05:12;;;;;;;12.83;11.63;;;17.10;1.00;;;;;;6339522;22;20382;-54
2023/08/27 01:07:48;;;;;;;11.17;10.03;;;17.00;1.00;;;;;;6340023;22;20393;-55
2023/08/27 01:10:31;;;;;;;9.57;8.67;;;17.00;1.00;;;;;;6313181;22;20445;-58
2023/08/27 01:13:03;;;;;;;8.40;7.40;;;17.10;1.00;;;;;;6340861;22;20426;-57
2023/08/27 01:15:30;;;;;;;7.77;6.97;;;17.20;1.00;;;;;;6340811;22;20846;-56
2023/08/27 01:17:56;;;;;;;9.13;8.43;;;17.30;1.00;;;;;;6338290;22;20396;-56
2023/08/27 01:20:22;;;;;;;9.83;9.03;;;17.40;1.00;;;;;;6337337;22;20386;-57
2023/08/27 01:22:47;;;;;;;8.60;7.40;;;17.50;1.00;;;;;;6284912;22;20397;-56
2023/08/27 01:25:18;;;;;;;7.90;7.10;;;17.50;1.00;;;;;;6339117;22;20151;-56
2023/08/27 01:27:59;;;;;;;10.23;8.70;;;17.60;1.00;;;;;;6311609;22;20178;-54
2023/08/27 01:30:29;;;;;;;8.17;7.47;;;17.70;1.00;;;;;;6338723;22;20661;-57
2023/08/27 01:33:03;;;;;;;9.93;9.07;;;17.70;1.00;;;;;;6311309;22;20381;-56
2023/08/27 01:35:29;;;;;;;7.87;7.00;;;17.80;1.00;;;;;;6311528;22;20417;-56
2023/08/27 01:37:55;;;;;;;7.17;6.57;;;17.80;1.00;;;;;;6310593;22;20397;-57
2023/08/27 01:40:21;;;;;;;8.57;7.70;;;17.80;99.90;;;;;;6338556;22;20539;-55
2023/08/27 01:42:47;;;;;;;9.73;8.20;;;17.80;99.90;;;;;;6336099;22;20191;-57
2023/08/27 01:45:14;;;;;;;7.60;7.00;;;17.80;99.90;;;;;;6310721;22;20162;-56
2023/08/27 01:47:40;;;;;;;9.43;7.27;;;17.80;99.90;;;;;;6310707;22;20439;-55
2023/08/27 01:50:07;;;;;;;8.67;7.90;;;17.80;99.90;;;;;;6338146;22;20436;-57
2023/08/27 01:52:35;;;;;;;7.23;6.00;;;17.80;99.90;;;;;;6338030;22;20155;-56
2023/08/27 01:55:04;;;;;;;10.27;7.33;;;17.80;99.90;;;;;;6337095;22;20846;-54
2023/08/27 01:57:29;;;;;;;9.20;8.40;;;17.90;99.90;;;;;;6339028;22;20377;-56
2023/08/27 01:59:55;;;;;;;9.80;8.70;;;17.80;99.90;;;;;;6340090;22;20523;-56
2023/08/27 02:02:21;;;;;;;7.70;7.00;;;17.70;99.90;;;;;;6340049;22;20154;-55
2023/08/27 02:04:46;;;;;;;9.27;7.43;;;17.70;99.90;;;;;;6338911;22;20155;-57
2023/08/27 02:07:12;;;;;;;6.50;6.00;;;17.70;99.90;;;;;;6339612;22;20182;-56
2023/08/27 02:09:38;;;;;;;5.90;5.40;;;17.70;99.90;;;;;;6339467;22;20142;-58
2023/08/27 02:12:04;;;;;;;6.70;6.10;;;17.80;1.00;;;;;;6339404;22;20157;-57
2023/08/27 02:14:30;;;;;;;7.00;6.30;;;17.90;99.90;;;;;;6339149;22;20182;-57
2023/08/27 02:16:55;;;;;;;9.03;8.13;;;17.90;99.90;;;;;;6338500;22;20819;-57
2023/08/27 02:19:21;;;;;;;8.00;7.30;;;17.90;99.90;;;;;;6339358;22;20556;-56
2023/08/27 02:21:47;;;;;;;9.63;8.80;;;18.00;99.90;;;;;;6340064;22;20508;-60
2023/08/27 02:24:13;;;;;;;9.80;8.70;;;18.00;99.90;;;;;;6340253;22;20373;-57
2023/08/27 02:26:39;;;;;;;9.33;8.43;;;17.90;99.90;;;;;;6313026;22;20603;-57
2023/08/27 02:29:04;;;;;;;10.80;9.80;;;17.80;99.90;;;;;;6312650;22;20373;-58
2023/08/27 02:31:30;;;;;;;8.00;7.30;;;17.70;99.90;;;;;;6340094;22;20151;-59
2023/08/27 02:33:56;;;;;;;8.97;8.17;;;17.60;99.90;;;;;;6339439;22;20136;-53
2023/08/27 02:36:21;;;;;;;8.10;7.30;;;17.70;99.90;;;;;;6312598;22;20175;-57
2023/08/27 02:38:47;;;;;;;9.03;8.13;;;17.70;99.90;;;;;;6340295;22;20158;-56
2023/08/27 02:41:13;;;;;;;12.13;10.97;;;17.60;99.90;;;;;;6339641;22;20194;-58
2023/08/27 02:43:39;;;;;;;10.70;9.80;;;17.70;99.90;;;;;;6340206;22;20212;-58
2023/08/27 02:46:06;;;;;;;11.30;10.30;;;17.60;99.90;;;;;;6340048;22;20765;-56
2023/08/27 02:48:32;;;;;;;10.60;9.70;;;17.50;99.90;;;;;;6339960;22;20167;-57
2023/08/27 02:50:58;;;;;;;11.07;10.17;;;17.40;1.00;;;;;;6338940;22;20474;-58
2023/08/27 02:53:24;;;;;;;12.60;11.50;;;17.30;1.00;;;;;;6338425;22;20152;-59
2023/08/27 02:55:50;;;;;;;12.30;11.00;;;17.30;1.00;;;;;;6338828;22;20475;-58
2023/08/27 02:58:15;;;;;;;13.97;12.60;;;17.20;1.00;;;;;;6339425;22;20127;-58
2023/08/27 03:00:41;;;;;;;12.40;11.40;;;17.10;1.00;;;;;;6338140;22;20128;-57
2023/08/27 03:03:07;;;;;;;14.13;12.93;;;17.00;1.00;;;;;;6338971;22;20491;-57
2023/08/27 03:05:33;;;;;;;12.90;11.33;;;17.00;1.00;;;;;;6338563;22;20155;-58
2023/08/27 03:07:59;;;;;;;14.10;12.80;;;16.90;1.00;;;;;;6338886;22;20885;-56
2023/08/27 03:10:25;;;;;;;12.43;11.40;;;17.00;1.00;;;;;;6339017;22;20160;-58
2023/08/27 03:12:53;;;;;;;12.70;11.40;;;17.00;1.00;;;;;;6313884;22;20252;-59
2023/08/27 03:15:20;;;;;;;15.03;13.73;;;17.00;1.00;;;;;;6341152;22;20457;-56
2023/08/27 03:17:45;;;;;;;13.57;12.30;;;17.00;1.00;;;;;;6340023;22;20458;-57
2023/08/27 03:20:11;;;;;;;12.70;11.50;;;16.90;1.00;;;;;;6340548;22;20686;-55
2023/08/27 03:22:37;;;;;;;13.87;12.57;;;16.80;1.00;;;;;;6341186;22;20523;-57
2023/08/27 03:25:03;;;;;;;11.20;10.17;;;16.80;1.00;;;;;;6340600;22;20159;-58
2023/08/27 03:27:29;;;;;;;10.80;9.90;;;16.80;1.00;;;;;;6340279;22;20377;-59
2023/08/27 03:29:55;;;;;;;13.40;12.00;;;16.80;1.00;;;;;;6340568;22;20443;-58
2023/08/27 03:32:21;;;;;;;11.27;10.33;;;16.80;1.00;;;;;;6338403;22;20152;-59
2023/08/27 03:34:46;;;;;;;11.07;10.07;;;16.80;1.00;;;;;;6338777;22;20154;-57
2023/08/27 03:37:12;;;;;;;9.87;9.07;;;16.90;1.00;;;;;;6338835;22;20362;-56
2023/08/27 03:39:38;;;;;;;6.43;5.83;;;16.80;1.00;;;;;;6339438;22;20190;-59
2023/08/27 03:42:05;;;;;;;9.70;8.90;;;16.80;1.00;;;;;;6339804;22;20190;-58
2023/08/27 03:44:31;;;;;;;9.40;8.60;;;16.90;1.00;;;;;;6340374;22;20147;-56
2023/08/27 03:46:56;;;;;;;8.50;7.80;;;16.90;1.00;;;;;;6339108;22;20389;-56
2023/08/27 03:49:22;;;;;;;8.50;7.60;;;16.90;1.00;;;;;;6339861;22;20138;-57
2023/08/27 03:51:48;;;;;;;10.50;8.67;;;16.90;1.00;;;;;;6313851;22;20131;-58
2023/08/27 03:54:14;;;;;;;7.87;7.10;;;16.90;1.00;;;;;;6341087;22;20151;-58
2023/08/27 03:56:39;;;;;;;7.73;6.33;;;16.80;1.00;;;;;;6341596;22;20467;-58
2023/08/27 03:59:05;;;;;;;7.67;6.80;;;16.80;1.00;;;;;;6340753;22;20476;-57
2023/08/27 04:01:31;;;;;;;7.33;6.73;;;16.80;1.00;;;;;;6341742;22;20184;-55
2023/08/27 04:03:56;;;;;;;7.57;6.90;;;16.90;1.00;;;;;;6342097;22;20127;-54
2023/08/27 04:06:22;;;;;;;7.97;7.27;;;16.90;1.00;;;;;;6342093;22;20194;-56
2023/08/27 04:08:48;;;;;;;8.83;7.70;;;16.90;1.00;;;;;;6342517;22;20495;-55
2023/08/27 04:11:15;;;;;;;5.93;5.33;;;16.90;1.00;;;;;;6342174;22;20208;-55
2023/08/27 04:13:41;;;;;;;6.87;6.37;;;16.90;1.00;;;;;;6342107;22;20378;-52
2023/08/27 04:16:11;;;;;;;7.70;7.00;;;16.90;1.00;;;;;;6342644;22;20430;-55
2023/08/27 04:18:36;;;;;;;7.37;6.67;;;16.90;1.00;;;;;;6314854;22;20169;-54
2023/08/27 04:21:02;;;;;;;7.10;6.50;;;16.80;1.00;;;;;;6342925;22;20850;-57
2023/08/27 04:23:28;;;;;;;6.00;5.40;;;16.90;1.00;;;;;;6341853;22;20151;-55
2023/08/27 04:25:54;;;;;;;5.67;5.17;;;16.90;1.00;;;;;;6341420;22;20650;-54
2023/08/27 04:28:20;;;;;;;6.37;5.80;;;17.00;1.00;;;;;;6341503;22;20147;-55
2023/08/27 04:30:49;;;;;;;5.90;5.40;;;17.00;1.00;;;;;;6340874;22;20123;-54
2023/08/27 04:33:18;;;;;;;4.33;4.03;;;17.10;1.00;;;;;;6314483;22;20243;-55
2023/08/27 04:35:48;;;;;;;4.60;4.20;;;17.20;1.00;;;;;;6341734;22;20397;-52
2023/08/27 04:38:13;;;;;;;5.90;5.40;;;17.30;1.00;;;;;;6314790;22;20413;-54
2023/08/27 04:40:39;;;;;;;7.17;6.43;;;17.40;1.00;;;;;;6314976;22;20408;-54
2023/08/27 04:43:05;;;;;;;4.90;4.50;;;17.40;1.00;;;;;;6311776;22;20302;-54
2023/08/27 04:45:30;;;;;;;6.63;6.03;;;17.30;1.00;;;;;;6311051;22;20251;-52
2023/08/27 04:47:56;;;;;;;6.40;5.90;;;17.40;1.00;;;;;;6310533;22;20148;-56
2023/08/27 04:50:22;;;;;;;7.03;6.43;;;17.40;1.00;;;;;;6310851;22;20152;-52
2023/08/27 04:52:48;;;;;;;6.53;5.93;;;17.30;99.90;;;;;;6284503;22;20382;-55
2023/08/27 04:55:14;;;;;;;6.13;5.57;;;17.30;1.00;;;;;;6310845;22;20363;-51
2023/08/27 04:57:39;;;;;;;5.13;4.63;;;17.20;1.00;;;;;;6310306;22;20158;-51
2023/08/27 05:00:16;;;;;;;6.30;5.70;;;17.20;1.00;;;;;;6310304;22;20148;-54
2023/08/27 05:02:42;;;;;;;6.50;5.57;;;17.20;1.00;;;;;;6310471;22;20163;-53
2023/08/27 05:05:08;;;;;;;7.03;5.57;;;17.10;1.00;;;;;;6310121;22;20422;-54
2023/08/27 05:07:33;;;;;;;6.80;6.20;;;17.10;1.00;;;;;;6283115;22;20234;-52
2023/08/27 05:09:59;;;;;;;5.60;5.10;;;17.10;1.00;;;;;;6310232;22;20215;-52
2023/08/27 05:12:25;;;;;;;5.80;5.23;;;17.10;1.00;;;;;;6309684;22;20318;-54
2023/08/27 05:14:50;;;;;;;8.50;6.00;;;17.20;1.00;;;;;;6310509;22;20167;-51
2023/08/27 05:17:16;;;;;;;6.27;5.67;;;17.20;1.00;;;;;;6310885;22;20148;-54
2023/08/27 05:19:42;;;;;;;5.70;5.20;;;17.20;1.00;;;;;;6310439;22;20210;-55
2023/08/27 05:22:07;;;;;;;5.40;5.00;;;17.30;1.00;;;;;;6309109;22;20231;-51
2023/08/27 05:24:34;;;;;;;6.70;4.70;;;17.30;1.00;;;;;;6281565;22;20480;-51
2023/08/27 05:27:00;;;;;;;6.20;5.70;;;17.40;1.00;;;;;;6309432;22;20147;-53
2023/08/27 05:29:26;;;;;;;5.07;4.67;;;17.50;1.00;;;;;;6282712;22;20429;-51
2023/08/27 05:31:52;;;;;;;6.27;5.67;;;17.40;1.00;;;;;;6309368;22;20151;-52
2023/08/27 05:34:18;;;;;;;6.03;5.47;;;17.50;1.00;;;;;;6308832;22;20389;-53
2023/08/27 05:36:44;;;;;;;5.80;4.53;;;17.50;99.90;;;;;;6308488;22;20504;-52
2023/08/27 05:39:10;;;;;;;5.73;5.20;;;17.30;99.90;;;;;;6309891;22;20152;-53
2023/08/27 05:41:36;;;;;;;4.33;3.93;;;17.20;99.90;;;;;;6319939;22;20425;-53
2023/08/27 05:44:01;;;;;;;5.30;3.73;;;17.10;1.00;;;;;;6341524;22;20151;-51
2023/08/27 05:46:27;;;;;;;3.27;3.00;;;16.90;99.90;;;;;;6340828;22;20206;-53
2023/08/27 05:48:53;;;;;;;4.77;4.10;;;16.80;1.00;;;;;;6338656;22;20142;-51
2023/08/27 05:51:18;;;;;;;3.83;3.40;;;16.80;1.00;;;;;;6340464;22;20199;-51
2023/08/27 05:53:44;;;;;;;7.03;4.10;;;16.70;1.00;;;;;;6341279;22;20177;-52
2023/08/27 05:56:10;;;;;;;4.50;2.87;;;16.60;1.00;;;;;;6340869;22;20163;-51
2023/08/27 05:58:35;;;;;;;3.43;3.13;;;16.40;1.00;;;;;;6342198;22;20554;-49
2023/08/27 06:01:02;;;;;;;3.40;2.60;;;16.40;1.00;;;;;;6342214;22;20415;-52
2023/08/27 06:03:28;;;;;;;4.80;3.53;;;16.40;1.00;;;;;;6343110;22;20226;-51
2023/08/27 06:05:53;;;;;;;4.10;3.70;;;16.40;1.00;;;;;;6342968;22;20436;-53
2023/08/27 06:08:19;;;;;;;3.60;3.30;;;16.40;1.00;;;;;;6341399;22;20208;-52
2023/08/27 06:10:45;;;;;;;3.13;2.70;;;16.50;1.00;;;;;;6338363;22;20151;-52
2023/08/27 06:13:10;;;;;;;3.20;2.40;;;16.60;1.00;;;;;;6338994;22;20128;-54
2023/08/27 06:15:37;;;;;;;3.20;2.87;;;16.70;1.00;;;;;;6340273;22;20127;-50
2023/08/27 06:18:04;;;;;;;2.60;2.40;;;16.80;1.00;;;;;;6341969;22;20594;-51
2023/08/27 06:20:30;;;;;;;2.60;2.40;;;16.90;1.00;;;;;;6341008;22;20444;-52
2023/08/27 06:22:56;;;;;;;2.70;2.50;;;17.00;1.00;;;;;;6339951;22;20392;-54
2023/08/27 06:25:22;;;;;;;3.50;2.37;;;17.10;1.00;;;;;;6340903;22;20437;-50
2023/08/27 06:27:48;;;;;;;2.30;2.10;;;17.10;1.00;;;;;;6340924;22;20144;-50
2023/08/27 06:30:14;;;;;;;3.40;2.30;;;17.20;1.00;;;;;;6341493;22;20377;-53
2023/08/27 06:32:40;;;;;;;2.93;2.63;;;17.20;1.00;;;;;;6341373;22;20405;-52
2023/08/27 06:35:06;;;;;;;3.40;2.70;;;17.30;1.00;;;;;;6340577;22;20496;-55
2023/08/27 06:37:32;;;;;;;4.10;3.67;;;17.30;1.00;;;;;;6339954;22;20168;-54
2023/08/27 06:39:57;;;;;;;4.10;3.70;;;17.30;1.00;;;;;;6341048;22;20385;-54
2023/08/27 06:42:23;;;;;;;3.47;3.17;;;17.30;1.00;;;;;;6341866;22;20253;-51
2023/08/27 06:44:49;;;;;;;3.83;3.23;;;17.30;1.00;;;;;;6340194;22;20228;-51
2023/08/27 06:47:14;;;;;;;4.30;3.90;;;17.40;99.90;;;;;;6342533;22;20147;-51
2023/08/27 06:49:40;;;;;;;4.83;3.87;;;17.30;1.00;;;;;;6343850;22;20158;-55
2023/08/27 06:52:06;;;;;;;3.43;3.13;;;17.30;1.00;;;;;;6342898;22;20127;-53
2023/08/27 06:54:32;;;;;;;4.97;3.87;;;17.30;1.00;;;;;;6343030;22;20127;-54
2023/08/27 06:56:57;;;;;;;4.93;3.07;;;17.30;1.00;;;;;;6343135;22;20827;-54
2023/08/27 06:59:23;;;;;;;3.93;3.53;;;17.20;99.90;;;;;;6342159;22;20353;-52
2023/08/27 07:01:49;;;;;;;5.07;4.43;;;17.20;1.00;;;;;;6344153;22;20143;-52
2023/08/27 07:04:14;;;;;;;4.07;3.67;;;17.20;1.00;;;;;;6342710;22;20152;-52
2023/08/27 07:06:40;;;;;;;3.70;3.40;;;17.30;1.00;;;;;;6342065;22;20289;-50
2023/08/27 07:09:06;;;;;;;3.47;3.17;;;17.30;1.00;;;;;;6342114;22;20147;-55
2023/08/27 07:11:33;;;;;;;4.07;3.50;;;17.30;99.90;;;;;;6339827;22;20234;-51
2023/08/27 07:13:59;;;;;;;3.53;2.90;;;17.20;99.90;;;;;;6341954;22;20665;-53
2023/08/27 07:16:26;;;;;;;3.87;3.03;;;17.30;99.90;;;;;;6340385;22;20385;-52
2023/08/27 07:18:52;;;;;;;4.97;3.30;;;17.30;99.90;;;;;;6342212;22;20152;-52
2023/08/27 07:21:18;;;;;;;2.70;2.50;;;17.30;99.90;;;;;;6342795;22;20416;-53
2023/08/27 07:23:44;;;;;;;3.00;2.70;;;17.30;99.90;;;;;;6340801;22;20827;-51
2023/08/27 07:26:11;;;;;;;3.13;2.70;;;17.30;99.90;;;;;;6339347;22;20185;-54
2023/08/27 07:28:37;;;;;;;2.60;2.07;;;17.20;99.90;;;;;;6341305;22;20453;-57
2023/08/27 07:31:04;;;;;;;3.00;2.33;;;17.30;99.90;;;;;;6342403;22;20494;-56
2023/08/27 07:33:30;;;;;;;2.73;2.30;;;17.40;99.90;;;;;;6341549;22;20385;-52
2023/08/27 07:35:56;;;;;;;3.37;2.80;;;17.50;99.90;;;;;;6340230;22;20382;-53
2023/08/27 07:38:26;;;;;;;2.27;2.07;;;17.60;99.90;;;;;;6339708;22;20677;-52
2023/08/27 07:40:52;;;;;;;2.10;1.80;;;17.60;99.90;;;;;;6340383;22;20132;-53
2023/08/27 07:43:18;;;;;;;4.77;2.60;;;17.60;99.90;;;;;;6340774;22;20836;-55
2023/08/27 07:45:43;;;;;;;5.90;2.33;;;17.60;99.90;;;;;;6340156;22;20424;-53
2023/08/27 07:48:09;;;;;;;2.17;1.97;;;17.70;99.90;;;;;;6341445;22;20577;-52
2023/08/27 07:50:35;;;;;;;2.37;1.97;;;17.70;99.90;;;;;;6340406;22;20259;-52
2023/08/27 07:53:00;;;;;;;2.00;1.80;;;17.60;99.90;;;;;;6341712;22;20143;-50
2023/08/27 07:55:31;;;;;;;1.77;1.50;;;17.70;99.90;;;;;;6340789;22;20216;-51
2023/08/27 07:57:57;;;;;;;2.00;1.70;;;17.70;99.90;;;;;;6339312;22;20196;-52
2023/08/27 08:00:22;;;;;;;2.07;1.87;;;17.70;99.90;;;;;;6340614;22;20719;-54
2023/08/27 08:02:48;;;;;;;1.97;1.77;;;17.80;99.90;;;;;;6338113;22;20389;-52
2023/08/27 08:05:14;;;;;;;1.97;1.73;;;17.80;99.90;;;;;;6338738;22;20163;-53
2023/08/27 08:07:40;;;;;;;2.53;2.03;;;17.80;99.90;;;;;;6338276;22;20426;-52
2023/08/27 08:10:06;;;;;;;2.47;1.87;;;17.80;99.90;;;;;;6340086;22;20264;-54
2023/08/27 08:12:32;;;;;;;2.67;1.50;;;17.80;99.90;;;;;;6337920;22;20378;-52
2023/08/27 08:14:58;;;;;;;2.03;1.83;;;17.70;99.90;;;;;;6339410;22;20393;-52
2023/08/27 08:17:23;;;;;;;2.47;1.50;;;17.60;99.90;;;;;;6341587;22;20132;-53
2023/08/27 08:19:50;;;;;;;3.37;1.80;;;17.60;99.90;;;;;;6339030;22;20131;-54
2023/08/27 08:22:16;;;;;;;2.67;2.00;;;17.50;99.90;;;;;;6339898;22;20227;-55
2023/08/27 08:24:42;;;;;;;2.27;2.07;;;17.60;99.90;;;;;;6341081;22;20449;-51
2023/08/27 08:27:07;;;;;;;2.70;2.27;;;17.70;99.90;;;;;;6339476;22;20478;-55
2023/08/27 08:29:33;;;;;;;2.67;1.53;;;17.80;99.90;;;;;;6338478;22;20155;-52
2023/08/27 08:31:59;;;;;;;1.93;1.73;;;17.90;99.90;;;;;;6340643;22;20523;-51
2023/08/27 08:34:28;;;;;;;4.10;2.30;;;18.10;99.90;;;;;;6339189;22;20397;-55
2023/08/27 08:36:54;;;;;;;2.57;2.17;;;18.10;99.90;;;;;;6338238;22;20396;-52
2023/08/27 08:39:20;;;;;;;2.17;1.97;;;18.20;76.10;;;;;;6338320;22;20389;-51
2023/08/27 08:41:55;;;;;;;3.70;1.90;;;18.10;1.00;;;;;;6336689;22;20441;-52
2023/08/27 08:44:40;;;;;;;2.50;1.83;;;18.20;55.20;;;;;;6337508;22;20173;-52
2023/08/27 08:47:09;;;;;;;2.90;2.10;;;18.40;1.00;;;;;;6338474;22;20372;-52
2023/08/27 08:49:36;;;;;;;3.60;1.73;;;18.50;1.00;;;;;;6337386;22;20357;-53
2023/08/27 08:52:06;;;;;;;2.20;1.73;;;18.60;1.00;;;;;;6336845;22;20365;-51
2023/08/27 08:54:32;;;;;;;2.00;1.80;;;18.60;1.00;;;;;;6338834;22;20468;-52
2023/08/27 08:57:00;;;;;;;2.03;1.80;;;18.70;1.00;;;;;;6338479;22;20462;-54
2023/08/27 08:59:28;;;;;;;2.27;1.87;;;18.50;1.00;;;;;;6339283;22;20377;-53
2023/08/27 09:01:54;;;;;;;4.37;1.90;;;18.50;1.00;;;;;;6339343;22;20350;-51
2023/08/27 09:04:21;;;;;;;2.57;1.90;;;18.40;1.00;;;;;;6311311;22;20389;-51
2023/08/27 09:06:46;;;;;;;2.63;2.10;;;18.30;1.00;;;;;;6338433;22;20436;-51
2023/08/27 09:09:13;;;;;;;2.40;1.87;;;18.20;1.00;;;;;;6335399;22;20970;-52
2023/08/27 09:11:39;;;;;;;2.50;1.73;;;18.30;1.00;;;;;;6333679;22;20373;-51
2023/08/27 09:14:04;;;;;;;2.27;2.00;;;18.30;1.00;;;;;;6336935;22;20715;-54
2023/08/27 09:16:30;;;;;;;2.53;2.10;;;18.40;1.00;;;;;;6338064;22;20139;-55
2023/08/27 09:18:56;;;;;;;2.30;1.77;;;18.50;1.00;;;;;;6337975;22;20143;-53
2023/08/27 09:21:22;;;;;;;2.80;2.30;;;18.70;1.00;;;;;;6336771;22;20162;-51
2023/08/27 09:23:48;;;;;;;2.27;1.83;;;18.80;1.00;;;;;;6339374;22;20397;-53
2023/08/27 09:26:14;;;;;;;2.23;1.87;;;19.00;1.00;;;;;;6338551;22;20167;-54
2023/08/27 09:28:40;;;;;;;2.33;1.80;;;19.30;99.90;;;;;;6338091;22;20365;-54
2023/08/27 09:31:09;;;;;;;2.63;2.43;;;19.40;99.90;;;;;;6339933;22;20389;-54
2023/08/27 09:33:41;;;;;;;2.10;1.80;;;19.70;1.00;;;;;;6339142;22;20439;-54
2023/08/27 09:36:08;;;;;;;2.47;1.90;;;19.70;99.90;;;;;;6340427;22;20400;-53
2023/08/27 09:38:36;;;;;;;2.53;2.30;;;19.80;99.90;;;;;;6338368;22;20417;-53
2023/08/27 09:41:15;;;;;;;2.50;2.30;;;19.90;10.60;;;;;;6337920;22;20388;-54
2023/08/27 09:43:53;;;;;;;3.17;1.73;;;20.00;1.00;;;;;;6340705;22;20445;-51
2023/08/27 09:46:19;;;;;;;2.30;1.83;;;20.10;99.90;;;;;;6340759;22;20413;-56
2023/08/27 09:49:00;;;;;;;2.63;1.90;;;20.00;99.90;;;;;;6340002;22;20392;-54
2023/08/27 09:51:29;;;;;;;2.43;2.10;;;20.10;99.90;;;;;;6336660;22;20504;-55
2023/08/27 09:53:58;;;;;;;3.40;2.10;;;20.30;99.90;;;;;;6339671;22;20492;-53
2023/08/27 09:56:28;;;;;;;3.30;2.13;;;20.50;99.90;;;;;;6338521;22;20408;-52
2023/08/27 09:58:54;;;;;;;1.83;1.63;;;20.40;99.90;;;;;;6338286;22;20369;-53
2023/08/27 10:01:21;;;;;;;2.40;2.00;;;20.30;1.00;;;;;;6337349;22;20446;-54
2023/08/27 10:03:47;;;;;;;2.20;2.00;;;20.40;54.60;;;;;;6335833;22;20385;-53
2023/08/27 10:06:14;;;;;;;2.83;1.90;;;20.30;46.40;;;;;;6338092;22;20684;-53
2023/08/27 10:08:51;;;;;;;2.07;1.73;;;20.30;1.00;;;;;;6337576;22;20393;-53
2023/08/27 10:11:17;;;;;;;2.70;1.77;;;20.30;1.00;;;;;;6339058;22;20357;-54
2023/08/27 10:13:44;;;;;;;2.63;1.70;;;20.40;37.30;;;;;;6338506;22;20365;-54
2023/08/27 10:16:12;;;;;;;3.73;1.73;;;20.50;99.90;;;;;;6338809;22;20386;-53
2023/08/27 10:18:38;;;;;;;2.67;1.80;;;20.40;1.00;;;;;;6338534;22;20750;-55
2023/08/27 10:21:08;;;;;;;2.43;1.80;;;20.30;99.90;;;;;;6339474;22;20388;-54
2023/08/27 10:23:38;;;;;;;2.73;2.20;;;20.60;1.00;;;;;;6339322;22;20381;-53
2023/08/27 10:26:04;;;;;;;3.13;2.40;;;20.60;1.00;;;;;;6339770;22;20413;-54
2023/08/27 10:28:30;;;;;;;2.20;2.00;;;20.70;1.00;;;;;;6339931;22;20460;-54
2023/08/27 10:30:57;;;;;;;6.10;1.80;;;20.80;1.00;;;;;;6339042;22;20372;-54
2023/08/27 10:33:22;;;;;;;2.50;1.70;;;20.90;1.00;;;;;;6339631;22;20419;-52
2023/08/27 10:35:50;;;;;;;2.63;1.60;;;21.00;99.90;;;;;;6340681;22;20408;-51
2023/08/27 10:38:17;;;;;;;2.07;1.87;;;20.90;1.00;;;;;;6341507;22;20136;-55
2023/08/27 10:40:44;;;;;;;2.07;1.80;;;20.80;1.00;;;;;;6341094;22;20372;-54
2023/08/27 10:43:18;;;;;;;2.80;1.93;;;20.80;99.90;;;;;;6341246;22;20439;-55
2023/08/27 10:45:44;;;;;;;2.73;2.03;;;20.80;99.90;;;;;;6339869;22;20512;-53
2023/08/27 10:48:16;;;;;;;2.60;2.10;;;20.70;99.90;;;;;;6341280;22;20399;-53
2023/08/27 10:50:49;;;;;;;3.60;1.90;;;20.70;1.40;;;;;;6341127;22;20377;-52
2023/08/27 10:53:15;;;;;;;2.10;1.80;;;20.60;11.00;;;;;;6341703;22;20428;-50
2023/08/27 10:55:43;;;;;;;2.63;2.03;;;20.50;99.90;;;;;;6339880;22;20395;-55
2023/08/27 10:58:23;;;;;;;2.80;1.70;;;20.70;99.90;;;;;;6338492;22;20471;-56
2023/08/27 11:01:14;;;;;;;2.60;1.90;;;20.90;73.30;;;;;;6337822;22;20385;-53
2023/08/27 11:04:04;;;;;;;3.30;2.20;;;21.00;13.20;;;;;;6331175;22;20478;-54
2023/08/27 11:06:40;;;;;;;4.97;2.20;;;21.20;1.00;;;;;;6335886;22;20502;-55
2023/08/27 11:09:27;;;;;;;2.20;1.90;;;20.90;1.00;;;;;;6339075;22;20683;-52
2023/08/27 11:12:00;;;;;;;2.13;1.70;;;20.90;1.00;;;;;;6339200;22;20388;-51
2023/08/27 11:14:26;;;;;;;3.57;2.47;;;20.90;1.00;;;;;;6339189;22;20403;-53
2023/08/27 11:16:58;;;;;;;2.90;2.13;;;20.80;99.90;;;;;;6338260;22;20369;-51
2023/08/27 11:19:30;;;;;;;2.73;2.00;;;20.70;99.90;;;;;;6341193;22;20427;-54
2023/08/27 11:22:17;;;;;;;2.43;1.97;;;20.70;99.90;;;;;;6338098;22;20719;-52
2023/08/27 11:24:48;;;;;;;2.77;2.40;;;20.60;99.90;;;;;;6338000;22;20392;-55
2023/08/27 11:27:17;;;;;;;2.43;1.93;;;20.60;1.00;;;;;;6338924;22;20812;-56
2023/08/27 11:29:49;;;;;;;2.67;1.83;;;20.70;1.00;;;;;;6337794;22;20461;-53
2023/08/27 11:32:15;;;;;;;2.83;2.10;;;20.80;1.40;;;;;;6339219;22;20366;-54
2023/08/27 11:34:45;;;;;;;2.67;2.20;;;20.80;1.00;;;;;;6337607;22;20435;-53
2023/08/27 11:37:11;;;;;;;2.80;2.10;;;21.00;1.00;;;;;;6337466;22;20412;-54
2023/08/27 11:39:38;;;;;;;2.50;2.23;;;21.20;1.00;;;;;;6336884;22;20404;-52
2023/08/27 11:42:14;;;;;;;2.80;2.10;;;21.40;99.90;;;;;;6338463;22;20481;-52
2023/08/27 11:44:54;;;;;;;5.23;2.00;;;21.40;99.90;;;;;;6339101;22;20419;-54
2023/08/27 11:47:21;;;;;;;2.07;1.87;;;21.60;1.00;;;;;;6337827;22;20357;-53
2023/08/27 11:49:51;;;;;;;2.30;1.70;;;21.50;1.00;;;;;;6339830;22;20362;-54
2023/08/27 11:52:20;;;;;;;3.10;2.30;;;21.60;1.00;;;;;;6340830;22;20809;-53
2023/08/27 11:54:46;;;;;;;2.77;2.27;;;21.80;54.60;;;;;;6339480;22;20385;-51
2023/08/27 11:57:14;;;;;;;3.00;2.07;;;21.70;1.00;;;;;;6337872;22;20385;-55
2023/08/27 11:59:40;;;;;;;2.37;2.13;;;21.50;1.00;;;;;;6341133;22;20403;-53
2023/08/27 12:02:07;;;;;;;3.80;2.10;;;21.30;1.00;;;;;;6340204;22;20429;-55
2023/08/27 12:04:33;;;;;;;6.77;2.60;;;21.20;1.00;;;;;;6339480;22;20128;-53
2023/08/27 12:07:03;;;;;;;2.80;1.80;;;21.30;1.00;;;;;;6339014;22;20505;-56
2023/08/27 12:09:33;;;;;;;2.50;1.90;;;21.50;1.00;;;;;;6340372;22;20381;-53
2023/08/27 12:12:01;;;;;;;3.13;2.00;;;21.70;1.00;;;;;;6338216;22;20388;-51
2023/08/27 12:14:28;;;;;;;2.70;2.37;;;21.80;1.00;;;;;;6340248;22;20377;-54
2023/08/27 12:16:54;;;;;;;2.23;2.03;;;21.90;1.00;;;;;;6340688;22;20361;-54
2023/08/27 12:19:21;;;;;;;3.03;2.10;;;21.90;1.00;;;;;;6339003;22;20840;-52
2023/08/27 12:21:52;;;;;;;2.70;2.00;;;21.50;1.00;;;;;;6338171;22;20456;-55
2023/08/27 12:24:36;;;;;;;4.93;2.40;;;21.40;1.00;;;;;;6337526;22;20381;-54
2023/08/27 12:27:03;;;;;;;2.30;2.10;;;21.50;1.00;;;;;;6340777;22;20432;-52
2023/08/27 12:29:35;;;;;;;3.10;2.03;;;21.40;1.00;;;;;;6338632;22;20373;-55
2023/08/27 12:32:11;;;;;;;2.33;1.90;;;21.30;1.00;;;;;;6339886;22;20818;-51
2023/08/27 12:34:47;;;;;;;2.50;2.30;;;21.20;1.00;;;;;;6341977;22;20357;-51
2023/08/27 12:37:15;;;;;;;6.03;2.00;;;21.20;1.00;;;;;;6340906;22;20384;-51
2023/08/27 12:39:42;;;;;;;3.00;2.20;;;21.20;1.00;;;;;;6341185;22;20417;-55
2023/08/27 12:42:08;;;;;;;2.97;2.40;;;21.30;1.00;;;;;;6340354;22;20453;-52
2023/08/27 12:44:37;;;;;;;2.40;1.93;;;21.40;1.00;;;;;;6339059;22;20385;-56
2023/08/27 12:47:03;;;;;;;2.87;2.27;;;21.60;1.00;;;;;;6312868;22;20521;-57
2023/08/27 12:49:30;;;;;;;2.47;1.93;;;21.60;1.00;;;;;;6338556;22;20377;-55
2023/08/27 12:51:56;;;;;;;2.57;2.30;;;21.50;1.00;;;;;;6339270;22;20450;-53